createdAt,value
2018-12-22T00:02:12.145Z,234.25
2018-12-22T00:04:40.314Z,251.55
2018-12-22T00:07:08.328Z,186.40
2018-12-22T00:09:36.603Z,163.03
2018-12-22T00:12:04.624Z,166.88
2018-12-22T00:14:32.683Z,165.12
2018-12-22T00:17:00.762Z,148.43
2018-12-22T00:19:28.895Z,152.45
2018-12-22T00:21:57.032Z,148.15
2018-12-22T00:24:25.096Z,141.90
2018-12-22T00:26:53.142Z,131.25
2018-12-22T00:29:21.362Z,136.68
2018-12-22T00:31:49.629Z,152.90
2018-12-22T00:34:17.851Z,148.93
2018-12-22T00:36:46.064Z,144.50
2018-12-22T00:39:14.190Z,139.10
2018-12-22T00:41:42.292Z,140.05
2018-12-22T00:44:10.584Z,124.65
2018-12-22T00:46:38.649Z,139.32
2018-12-22T00:49:06.665Z,132.43
2018-12-22T00:51:34.673Z,130.65
2018-12-22T00:54:02.962Z,136.65
2018-12-22T00:56:31.181Z,144.85
2018-12-22T00:58:59.535Z,136.95
2018-12-22T01:01:27.622Z,135.25
2018-12-22T01:03:55.888Z,135.28
2018-12-22T01:06:23.945Z,136.43
2018-12-22T01:08:51.845Z,134.37
2018-12-22T01:11:20.028Z,118.80
2018-12-22T01:13:48.220Z,124.67
2018-12-22T01:16:16.286Z,122.72
2018-12-22T01:18:44.412Z,124.20
2018-12-22T01:21:12.504Z,153.60
2018-12-22T01:23:40.599Z,116.75
2018-12-22T01:26:08.659Z,114.72
2018-12-22T01:28:39.476Z,125.27
2018-12-22T01:31:07.065Z,95.50
2018-12-22T01:33:35.308Z,132.03
2018-12-22T01:36:03.383Z,113.85
2018-12-22T01:38:31.625Z,124.10
2018-12-22T01:40:59.645Z,110.83
2018-12-22T01:43:27.714Z,121.42
2018-12-22T01:45:55.823Z,114.52
2018-12-22T01:48:23.769Z,126.27
2018-12-22T01:50:51.759Z,138.77
2018-12-22T01:53:19.704Z,123.42
2018-12-22T01:55:47.789Z,119.75
2018-12-22T01:58:16.080Z,95.12
2018-12-22T02:00:44.345Z,104.92
2018-12-22T02:03:12.565Z,103.95
2018-12-22T02:05:40.556Z,116.12
2018-12-22T02:08:08.760Z,121.20
2018-12-22T02:10:37.025Z,117.05
2018-12-22T02:13:05.121Z,119.02
2018-12-22T02:15:33.318Z,113.77
2018-12-22T02:18:01.484Z,112.37
2018-12-22T02:20:29.679Z,124.92
2018-12-22T02:22:57.877Z,121.45
2018-12-22T02:25:25.945Z,99.52
2018-12-22T02:27:54.021Z,106.37
2018-12-22T02:30:22.080Z,108.78
2018-12-22T02:32:50.288Z,97.85
2018-12-22T02:35:18.349Z,113.97
2018-12-22T02:37:46.536Z,96.87
2018-12-22T02:40:14.818Z,99.07
2018-12-22T02:42:42.881Z,108.70
2018-12-22T02:45:10.820Z,95.85
2018-12-22T02:47:38.876Z,96.50
2018-12-22T02:50:07.395Z,107.05
2018-12-22T02:52:35.662Z,96.57
2018-12-22T02:55:03.847Z,104.58
2018-12-22T02:57:32.053Z,93.62
2018-12-22T03:00:00.178Z,111.32
2018-12-22T03:02:28.294Z,101.22
2018-12-22T03:04:56.528Z,88.67
2018-12-22T03:07:24.633Z,90.03
2018-12-22T03:09:52.752Z,110.60
2018-12-22T03:12:20.974Z,107.90
2018-12-22T03:14:49.217Z,114.77
2018-12-22T03:17:17.513Z,110.63
2018-12-22T03:19:45.684Z,108.95
2018-12-22T03:22:13.633Z,101.95
2018-12-22T03:24:41.872Z,103.83
2018-12-22T03:27:09.891Z,95.55
2018-12-22T03:29:38.057Z,100.47
2018-12-22T03:32:06.228Z,104.40
2018-12-22T03:34:34.270Z,101.62
2018-12-22T03:37:02.470Z,112.32
2018-12-22T03:39:30.737Z,105.72
2018-12-22T03:41:58.811Z,119.53
2018-12-22T03:44:26.829Z,115.70
2018-12-22T03:46:54.702Z,105.15
2018-12-22T03:49:22.973Z,107.55
2018-12-22T03:51:51.307Z,123.35
2018-12-22T03:54:19.552Z,118.15
2018-12-22T03:56:47.656Z,108.17
2018-12-22T03:59:24.541Z,96.17
2018-12-22T04:01:46.052Z,104.85
2018-12-22T04:04:14.137Z,103.10
2018-12-22T04:06:42.314Z,111.20
2018-12-22T04:09:10.378Z,108.05
2018-12-22T04:11:38.580Z,115.45
2018-12-22T04:14:06.771Z,100.87
2018-12-22T04:16:34.868Z,110.75
2018-12-22T04:19:02.776Z,92.53
2018-12-22T04:21:30.807Z,104.97
2018-12-22T04:23:58.926Z,108.55
2018-12-22T04:26:27.169Z,93.97
2018-12-22T04:28:55.434Z,108.50
2018-12-22T04:31:23.532Z,110.95
2018-12-22T04:33:51.773Z,107.78
2018-12-22T04:36:19.991Z,100.45
2018-12-22T04:38:48.114Z,105.55
2018-12-22T04:41:16.292Z,111.80
2018-12-22T04:43:44.552Z,119.70
2018-12-22T04:46:12.640Z,109.90
2018-12-22T04:48:40.689Z,108.92
2018-12-22T04:51:08.912Z,113.22
2018-12-22T04:53:37.013Z,114.05
2018-12-22T04:56:05.104Z,115.90
2018-12-22T04:58:33.374Z,106.43
2018-12-22T05:01:01.589Z,129.25
2018-12-22T05:03:29.800Z,113.03
2018-12-22T05:05:57.753Z,114.10
2018-12-22T05:08:25.776Z,100.18
2018-12-22T05:10:53.766Z,113.40
2018-12-22T05:13:22.041Z,106.85
2018-12-22T05:15:50.362Z,117.75
2018-12-22T05:18:18.338Z,111.25
2018-12-22T05:20:46.600Z,111.70
2018-12-22T05:23:14.720Z,105.58
2018-12-22T05:25:42.983Z,100.75
2018-12-22T05:28:11.188Z,114.25
2018-12-22T05:30:39.400Z,123.75
2018-12-22T05:33:07.600Z,116.77
2018-12-22T05:35:35.820Z,109.05
2018-12-22T05:38:03.843Z,109.92
2018-12-22T05:40:31.958Z,102.78
2018-12-22T05:43:00.010Z,125.58
2018-12-22T05:45:28.245Z,107.72
2018-12-22T05:47:56.264Z,104.05
2018-12-22T05:50:24.356Z,120.28
2018-12-22T05:52:52.456Z,133.37
2018-12-22T05:55:20.676Z,129.07
2018-12-22T05:57:48.896Z,117.33
2018-12-22T06:00:17.016Z,115.37
2018-12-22T06:02:45.235Z,104.32
2018-12-22T06:05:13.268Z,123.42
2018-12-22T06:07:41.515Z,97.85
2018-12-22T06:10:09.612Z,106.80
2018-12-22T06:12:37.757Z,118.87
2018-12-22T06:15:06.356Z,97.35
2018-12-22T06:17:34.603Z,100.50
2018-12-22T06:20:02.795Z,96.97
2018-12-22T06:22:30.894Z,110.20
2018-12-22T06:24:58.913Z,109.83
2018-12-22T06:27:27.133Z,118.97
2018-12-22T06:29:55.365Z,268.12
2018-12-22T06:32:24.885Z,197.68
2018-12-22T06:34:53.057Z,178.27
2018-12-22T06:37:21.152Z,149.02
2018-12-22T06:39:49.251Z,123.00
2018-12-22T06:42:17.495Z,101.65
2018-12-22T06:44:45.532Z,109.57
2018-12-22T06:47:13.456Z,159.22
2018-12-22T06:49:41.403Z,140.40
2018-12-22T06:52:09.596Z,142.18
2018-12-22T06:54:37.509Z,138.62
2018-12-22T06:57:05.540Z,133.95
2018-12-22T06:59:33.704Z,135.97
2018-12-22T07:02:01.844Z,151.40
2018-12-22T07:04:30.012Z,146.55
2018-12-22T07:06:58.344Z,115.85
2018-12-22T07:09:26.460Z,101.90
2018-12-22T07:11:54.782Z,96.22
2018-12-22T07:14:23.079Z,95.62
2018-12-22T07:16:51.135Z,131.97
2018-12-22T07:19:19.284Z,135.80
2018-12-22T07:21:47.224Z,140.70
2018-12-22T07:24:15.405Z,135.63
2018-12-22T07:26:43.869Z,146.40
2018-12-22T07:29:12.021Z,415.57
2018-12-22T07:31:40.044Z,61.57
2018-12-22T07:34:08.242Z,52.67
2018-12-22T07:36:36.580Z,67.20
2018-12-22T07:39:06.002Z,85.00
2018-12-22T07:41:34.022Z,98.60
2018-12-22T07:44:02.960Z,62.07
2018-12-22T07:46:31.063Z,59.50
2018-12-22T07:48:59.385Z,66.23
2018-12-22T07:51:27.648Z,88.97
2018-12-22T07:53:55.668Z,99.57
2018-12-22T07:56:23.910Z,92.97
2018-12-22T07:58:52.087Z,245.23
2018-12-22T08:01:20.161Z,210.80
2018-12-22T08:03:48.202Z,154.43
2018-12-22T08:06:16.522Z,124.47
2018-12-22T08:08:44.743Z,117.40
2018-12-22T08:11:12.708Z,116.97
2018-12-22T08:13:40.830Z,252.83
2018-12-22T08:16:09.001Z,218.27
2018-12-22T08:18:37.221Z,177.27
2018-12-22T08:21:05.484Z,130.90
2018-12-22T08:23:33.692Z,125.00
2018-12-22T08:26:01.980Z,113.17
2018-12-22T08:28:30.002Z,167.23
2018-12-22T08:30:58.219Z,166.47
2018-12-22T08:33:26.439Z,128.83
2018-12-22T08:35:54.504Z,105.50
2018-12-22T08:38:22.560Z,107.70
2018-12-22T08:40:50.544Z,115.53
2018-12-22T08:43:18.718Z,99.43
2018-12-22T08:45:46.800Z,111.07
2018-12-22T08:48:15.006Z,108.73
2018-12-22T08:50:43.148Z,109.10
2018-12-22T08:53:11.320Z,127.87
2018-12-22T08:55:39.616Z,140.27
2018-12-22T08:58:07.836Z,158.57
2018-12-22T09:00:35.914Z,140.53
2018-12-22T09:03:03.920Z,127.03
2018-12-22T09:05:32.018Z,125.20
2018-12-22T09:08:00.140Z,140.40
2018-12-22T09:10:28.333Z,124.90
2018-12-22T09:12:56.457Z,110.73
2018-12-22T09:15:24.524Z,148.87
2018-12-22T09:17:52.636Z,152.23
2018-12-22T09:20:20.804Z,137.33
2018-12-22T09:22:48.864Z,126.30
2018-12-22T09:25:17.004Z,146.60
2018-12-22T09:27:45.171Z,150.30
2018-12-22T09:30:13.612Z,136.87
2018-12-22T09:32:41.752Z,128.73
2018-12-22T09:35:10.131Z,118.50
2018-12-22T09:37:38.352Z,106.67
2018-12-22T09:40:06.800Z,115.17
2018-12-22T09:42:35.093Z,111.70
2018-12-22T09:45:04.254Z,104.70
2018-12-22T09:47:32.491Z,125.13
2018-12-22T09:50:00.765Z,110.80
2018-12-22T09:52:29.090Z,101.30
2018-12-22T09:54:57.133Z,98.70
2018-12-22T09:57:25.093Z,110.43
2018-12-22T09:59:53.164Z,113.53
2018-12-22T10:02:21.231Z,123.40
2018-12-22T10:04:49.456Z,111.27
2018-12-22T10:07:17.702Z,119.20
2018-12-22T10:09:45.764Z,130.90
2018-12-22T10:12:13.955Z,130.97
2018-12-22T10:14:42.263Z,134.37
2018-12-22T10:17:10.185Z,135.87
2018-12-22T10:19:38.300Z,137.43
2018-12-22T10:22:06.364Z,140.60
2018-12-22T10:24:34.547Z,152.87
2018-12-22T10:27:02.805Z,141.37
2018-12-22T10:29:30.978Z,136.77
2018-12-22T10:31:59.143Z,144.93
2018-12-22T10:34:27.317Z,149.10
2018-12-22T10:36:55.316Z,160.73
2018-12-22T10:39:23.379Z,146.10
2018-12-22T10:41:51.475Z,151.87
2018-12-22T10:44:19.741Z,141.53
2018-12-22T10:46:47.935Z,101.03
2018-12-22T10:49:16.164Z,118.77
2018-12-22T10:51:44.301Z,126.50
2018-12-22T10:54:12.451Z,132.17
2018-12-22T10:56:40.456Z,127.60
2018-12-22T10:59:08.484Z,86.23
2018-12-22T11:01:36.636Z,83.07
2018-12-22T11:04:04.853Z,79.47
2018-12-22T11:06:32.916Z,89.63
2018-12-22T11:09:01.116Z,112.97
2018-12-22T11:11:29.332Z,94.73
2018-12-22T11:13:57.533Z,91.10
2018-12-22T11:16:25.796Z,96.93
2018-12-22T11:18:53.852Z,96.47
2018-12-22T11:21:22.007Z,79.83
2018-12-22T11:23:50.212Z,209.13
2018-12-22T11:26:18.472Z,80.13
2018-12-22T11:28:46.652Z,68.57
2018-12-22T11:31:14.536Z,72.33
2018-12-22T11:33:42.574Z,59.13
2018-12-22T11:36:10.844Z,53.27
2018-12-22T11:38:38.929Z,77.60
2018-12-22T11:41:07.050Z,70.83
2018-12-22T11:43:35.075Z,88.00
2018-12-22T11:46:03.389Z,114.00
2018-12-22T11:48:52.889Z,107.43
2018-12-22T11:51:21.020Z,179.90
2018-12-22T11:53:49.119Z,597.80
2018-12-22T11:56:17.343Z,516.40
2018-12-22T11:58:45.460Z,284.40
2018-12-22T12:01:14.489Z,318.67
2018-12-22T12:03:42.704Z,456.87
2018-12-22T12:06:10.900Z,662.60
2018-12-22T12:08:39.144Z,319.03
2018-12-22T12:11:07.264Z,273.00
2018-12-22T12:13:35.532Z,314.27
2018-12-22T12:16:12.865Z,196.73
2018-12-22T12:18:44.036Z,252.23
2018-12-22T12:21:12.293Z,187.50
2018-12-22T12:23:40.567Z,166.50
2018-12-22T12:26:08.761Z,154.37
2018-12-22T12:28:36.691Z,222.50
2018-12-22T12:31:04.848Z,148.00
2018-12-22T12:33:32.750Z,286.40
2018-12-22T12:36:00.932Z,205.67
2018-12-22T12:38:28.992Z,263.67
2018-12-22T12:40:57.244Z,442.67
2018-12-22T12:43:25.413Z,485.77
2018-12-22T12:45:53.618Z,394.40
2018-12-22T12:48:23.056Z,193.43
2018-12-22T12:50:51.174Z,327.37
2018-12-22T12:53:19.231Z,248.43
2018-12-22T12:55:47.392Z,289.60
2018-12-22T12:58:15.584Z,191.50
2018-12-22T13:00:43.647Z,189.57
2018-12-22T13:03:11.768Z,148.43
2018-12-22T13:05:39.944Z,139.40
2018-12-22T13:08:07.965Z,145.13
2018-12-22T13:10:36.248Z,147.83
2018-12-22T13:13:21.664Z,205.57
2018-12-22T13:15:49.608Z,164.00
2018-12-22T13:18:17.803Z,325.70
2018-12-22T13:20:46.055Z,162.07
2018-12-22T13:23:14.216Z,353.83
2018-12-22T13:25:42.345Z,215.53
2018-12-22T13:28:10.383Z,147.27
2018-12-22T13:30:38.404Z,221.57
2018-12-22T13:33:07.043Z,245.80
2018-12-22T13:35:35.287Z,257.77
2018-12-22T13:38:03.240Z,189.77
2018-12-22T13:40:31.255Z,272.87
2018-12-22T13:42:59.401Z,211.53
2018-12-22T13:45:27.902Z,166.33
2018-12-22T13:47:56.088Z,189.37
2018-12-22T13:50:24.162Z,241.73
2018-12-22T13:52:52.582Z,210.73
2018-12-22T13:55:20.824Z,265.83
2018-12-22T13:57:49.004Z,293.33
2018-12-22T14:00:17.284Z,288.20
2018-12-22T14:02:45.516Z,277.10
2018-12-22T14:05:15.712Z,258.43
2018-12-22T14:07:43.807Z,327.47
2018-12-22T14:10:11.873Z,307.80
2018-12-22T14:12:40.178Z,254.83
2018-12-22T14:15:10.116Z,215.23
2018-12-22T14:17:42.407Z,199.87
2018-12-22T14:20:12.280Z,219.80
2018-12-22T14:22:40.400Z,221.50
2018-12-22T14:25:10.577Z,242.73
2018-12-22T14:27:38.852Z,222.33
2018-12-22T14:30:08.724Z,223.47
2018-12-22T14:32:37.046Z,443.60
2018-12-22T14:35:11.286Z,361.33
2018-12-22T14:37:39.557Z,274.10
2018-12-22T14:40:08.355Z,249.10
2018-12-22T14:42:36.652Z,242.60
2018-12-22T14:45:04.917Z,201.33
2018-12-22T14:47:33.037Z,207.67
2018-12-22T14:50:01.242Z,193.33
2018-12-22T14:52:29.530Z,267.57
2018-12-22T14:54:57.692Z,213.97
2018-12-22T14:57:26.201Z,240.17
2018-12-22T14:59:54.491Z,296.30
2018-12-22T15:02:22.612Z,377.47
2018-12-22T15:04:50.672Z,419.77
2018-12-22T15:07:18.884Z,504.30
2018-12-22T15:09:47.116Z,417.20
2018-12-22T15:12:15.316Z,621.20
2018-12-22T15:14:43.331Z,749.73
2018-12-22T15:17:11.624Z,989.13
2018-12-22T15:19:40.149Z,520.73
2018-12-22T15:22:08.389Z,501.07
2018-12-22T15:24:36.474Z,573.17
2018-12-22T15:27:04.580Z,705.60
2018-12-22T15:29:32.756Z,626.80
2018-12-22T15:32:00.872Z,359.13
2018-12-22T15:34:28.839Z,283.30
2018-12-22T15:36:57.057Z,334.47
2018-12-22T15:39:25.211Z,679.00
2018-12-22T15:41:53.273Z,575.97
2018-12-22T15:44:21.457Z,648.13
2018-12-22T15:46:49.428Z,617.03
2018-12-22T15:49:18.332Z,642.40
2018-12-22T15:51:46.453Z,450.23
2018-12-22T15:54:14.612Z,522.53
2018-12-22T15:56:42.588Z,425.33
2018-12-22T15:59:10.797Z,384.00
2018-12-22T16:01:39.014Z,366.67
2018-12-22T16:04:07.184Z,329.73
2018-12-22T16:06:35.424Z,273.73
2018-12-22T16:09:05.244Z,298.33
2018-12-22T16:11:33.421Z,283.67
2018-12-22T16:14:01.621Z,304.60
2018-12-22T16:16:29.910Z,294.27
2018-12-22T16:18:58.032Z,377.73
2018-12-22T16:21:26.153Z,421.53
2018-12-22T16:23:54.312Z,371.03
2018-12-22T16:26:22.339Z,302.30
2018-12-22T16:28:53.720Z,267.97
2018-12-22T16:31:21.944Z,353.23
2018-12-22T16:33:50.209Z,659.83
2018-12-22T16:36:18.528Z,585.17
2018-12-22T16:38:46.724Z,421.03
2018-12-22T16:41:14.921Z,347.60
2018-12-22T16:43:43.139Z,310.40
2018-12-22T16:46:11.299Z,267.57
2018-12-22T16:48:39.869Z,322.57
2018-12-22T16:51:07.921Z,298.80
2018-12-22T16:53:36.019Z,400.60
2018-12-22T16:56:04.240Z,293.43
2018-12-22T16:58:35.589Z,304.23
2018-12-22T17:01:09.309Z,301.37
2018-12-22T17:03:37.497Z,419.43
2018-12-22T17:06:06.876Z,315.67
2018-12-22T17:08:35.179Z,337.03
2018-12-22T17:11:03.995Z,326.53
2018-12-22T17:13:32.165Z,303.30
2018-12-22T17:16:00.937Z,324.87
2018-12-22T17:18:29.533Z,320.70
2018-12-22T17:21:01.883Z,302.60
2018-12-22T17:24:04.032Z,469.70
2018-12-22T17:26:33.322Z,317.73
2018-12-22T17:29:01.584Z,279.53
2018-12-22T17:31:29.896Z,261.30
2018-12-22T17:33:58.116Z,260.67
2018-12-22T17:36:26.364Z,220.63
2018-12-22T17:38:54.656Z,230.77
2018-12-22T17:41:22.821Z,198.13
2018-12-22T17:43:50.855Z,204.90
2018-12-22T17:46:19.015Z,171.70
2018-12-22T17:48:47.335Z,203.57
2018-12-22T17:51:15.542Z,264.40
2018-12-22T17:53:43.676Z,301.47
2018-12-22T17:56:11.896Z,210.60
2018-12-22T17:58:40.216Z,194.23
2018-12-22T18:01:08.280Z,195.07
2018-12-22T18:03:37.704Z,206.27
2018-12-22T18:06:05.864Z,256.23
2018-12-22T18:08:33.912Z,304.10
2018-12-22T18:11:02.019Z,233.63
2018-12-22T18:13:30.185Z,202.10
2018-12-22T18:15:58.388Z,209.07
2018-12-22T18:18:26.578Z,210.80
2018-12-22T18:20:54.800Z,192.97
2018-12-22T18:23:22.965Z,207.90
2018-12-22T18:25:51.084Z,216.03
2018-12-22T18:28:19.382Z,313.67
2018-12-22T18:30:47.625Z,402.07
2018-12-22T18:33:15.801Z,338.67
2018-12-22T18:35:44.065Z,210.20
2018-12-22T18:38:12.180Z,227.77
2018-12-22T18:40:40.360Z,224.37
2018-12-22T18:43:08.388Z,249.80
2018-12-22T18:45:36.641Z,253.20
2018-12-22T18:48:04.861Z,245.63
2018-12-22T18:50:32.792Z,246.53
2018-12-22T18:53:00.967Z,227.63
2018-12-22T18:55:29.074Z,235.33
2018-12-22T18:57:57.982Z,228.53
2018-12-22T19:00:26.115Z,234.23
2018-12-22T19:02:54.390Z,190.67
2018-12-22T19:05:23.223Z,188.93
2018-12-22T19:07:52.392Z,278.17
2018-12-22T19:10:23.411Z,376.10
2018-12-22T19:12:51.734Z,231.27
2018-12-22T19:15:19.902Z,264.37
2018-12-22T19:17:47.941Z,324.03
2018-12-22T19:20:18.601Z,266.30
2018-12-22T19:22:46.840Z,175.70
2018-12-22T19:25:15.039Z,473.70
2018-12-22T19:27:43.104Z,652.10
2018-12-22T19:30:11.231Z,425.17
2018-12-22T19:32:39.300Z,337.83
2018-12-22T19:35:07.365Z,268.83
2018-12-22T19:37:35.532Z,210.97
2018-12-22T19:40:04.058Z,197.53
2018-12-22T19:42:32.278Z,226.90
2018-12-22T19:45:00.176Z,224.43
2018-12-22T19:47:28.395Z,194.90
2018-12-22T19:49:56.552Z,175.27
2018-12-22T19:52:24.859Z,157.60
2018-12-22T19:54:52.874Z,134.40
2018-12-22T19:57:20.894Z,112.60
2018-12-22T19:59:48.914Z,122.77
2018-12-22T20:02:17.180Z,119.93
2018-12-22T20:04:45.130Z,97.30
2018-12-22T20:07:13.144Z,127.97
2018-12-22T20:09:41.260Z,182.70
2018-12-22T20:12:09.514Z,179.63
2018-12-22T20:14:37.775Z,197.20
2018-12-22T20:17:05.919Z,190.20
2018-12-22T20:19:34.071Z,194.13
2018-12-22T20:22:02.293Z,195.27
2018-12-22T20:24:30.556Z,232.97
2018-12-22T20:26:58.686Z,402.93
2018-12-22T20:29:26.724Z,323.43
2018-12-22T20:31:54.761Z,302.17
2018-12-22T20:34:22.789Z,272.37
2018-12-22T20:36:50.911Z,255.70
2018-12-22T20:39:18.972Z,225.33
2018-12-22T20:41:47.176Z,231.67
2018-12-22T20:44:15.366Z,218.67
2018-12-22T20:46:43.631Z,222.23
2018-12-22T20:49:11.683Z,222.10
2018-12-22T20:51:39.914Z,231.33
2018-12-22T20:54:08.146Z,354.20
2018-12-22T20:56:36.314Z,270.83
2018-12-22T20:59:04.389Z,271.73
2018-12-22T21:01:32.707Z,333.93
2018-12-22T21:04:01.027Z,250.17
2018-12-22T21:06:32.784Z,269.00
2018-12-22T21:09:00.980Z,246.80
2018-12-22T21:11:29.248Z,228.00
2018-12-22T21:13:57.432Z,207.10
2018-12-22T21:16:25.739Z,238.67
2018-12-22T21:18:53.859Z,574.33
2018-12-22T21:21:21.825Z,407.67
2018-12-22T21:23:49.921Z,378.83
2018-12-22T21:26:18.118Z,309.93
2018-12-22T21:28:46.287Z,293.93
2018-12-22T21:31:14.500Z,261.77
2018-12-22T21:33:42.520Z,350.27
2018-12-22T21:36:10.797Z,492.37
2018-12-22T21:38:38.959Z,471.03
2018-12-22T21:41:07.080Z,430.83
2018-12-22T21:43:35.130Z,459.07
2018-12-22T21:46:03.275Z,412.83
2018-12-22T21:48:31.294Z,370.90
2018-12-22T21:50:59.460Z,339.07
2018-12-22T21:53:27.552Z,351.07
2018-12-22T21:55:55.753Z,334.87
2018-12-22T21:58:24.026Z,314.53
2018-12-22T22:00:52.178Z,289.87
2018-12-22T22:03:20.313Z,314.93
2018-12-22T22:05:48.533Z,255.10
2018-12-22T22:08:16.525Z,201.40
2018-12-22T22:10:44.683Z,191.23
2018-12-22T22:13:12.892Z,171.50
2018-12-22T22:15:40.857Z,194.37
2018-12-22T22:18:08.955Z,266.23
2018-12-22T22:20:37.196Z,201.40
2018-12-22T22:23:05.208Z,192.60
2018-12-22T22:25:33.337Z,204.67
2018-12-22T22:28:01.509Z,148.63
2018-12-22T22:30:29.431Z,173.87
2018-12-22T22:32:57.748Z,180.97
2018-12-22T22:35:25.667Z,129.00
2018-12-22T22:37:53.720Z,158.63
2018-12-22T22:40:22.009Z,191.43
2018-12-22T22:42:50.127Z,162.97
2018-12-22T22:45:18.456Z,148.27
2018-12-22T22:47:46.515Z,119.00
2018-12-22T22:50:14.688Z,137.27
2018-12-22T22:52:42.806Z,142.70
2018-12-22T22:55:10.926Z,134.67
2018-12-22T22:57:39.192Z,116.57
2018-12-22T23:00:10.677Z,149.13
2018-12-22T23:02:38.896Z,114.63
2018-12-22T23:05:07.217Z,115.77
2018-12-22T23:07:35.274Z,168.73
2018-12-22T23:10:03.556Z,142.37
2018-12-22T23:12:31.620Z,109.67
2018-12-22T23:14:59.640Z,161.17
2018-12-22T23:17:27.848Z,152.60
2018-12-22T23:19:56.034Z,146.40
2018-12-22T23:22:24.201Z,197.83
2018-12-22T23:24:52.245Z,277.93
2018-12-22T23:27:20.322Z,123.30
2018-12-22T23:29:48.611Z,143.70
2018-12-22T23:32:16.677Z,149.10
2018-12-22T23:34:44.872Z,197.10
2018-12-22T23:37:12.976Z,177.33
2018-12-22T23:39:41.191Z,165.07
2018-12-22T23:42:09.257Z,247.20
2018-12-22T23:44:37.475Z,168.10
2018-12-22T23:47:05.529Z,122.43
2018-12-22T23:49:33.663Z,105.97
2018-12-22T23:52:01.938Z,213.67
2018-12-22T23:54:29.916Z,131.00
2018-12-22T23:56:58.172Z,110.40
2018-12-22T23:59:26.325Z,137.87
